Time;durP1;ratioP1;P1;durP2;ratioP2;P2;SDS_P1;SDS_P2;PMS_P1;PMS_P2;Temp;Humidity;BMP_temperature;BMP_pressure;BME280_temperature;BME280_humidity;BME280_pressure;Samples;Min_cycle;Max_cycle;Signal;HPM_P1;HPM_P2
2022/03/31 00:01:33;;;;;;;7.70;4.60;;;3.80;88.70;;;;;;5011801;28;20192;-59
2022/03/31 00:03:58;;;;;;;6.43;4.60;;;4.10;88.70;;;;;;5016163;28;20203;-61
2022/03/31 00:06:24;;;;;;;7.77;4.97;;;4.20;87.40;;;;;;5021080;28;21022;-60
2022/03/31 00:08:50;;;;;;;6.70;4.70;;;4.20;86.70;;;;;;5017290;28;20278;-59
2022/03/31 00:11:17;;;;;;;5.40;4.20;;;4.10;87.30;;;;;;5017945;28;20338;-59
2022/03/31 00:13:43;;;;;;;6.47;5.27;;;4.00;87.30;;;;;;5013035;28;20199;-61
2022/03/31 00:16:09;;;;;;;7.53;5.00;;;3.70;87.70;;;;;;5013420;28;20511;-58
2022/03/31 00:18:34;;;;;;;8.07;4.23;;;3.60;88.50;;;;;;5022204;28;20201;-60
2022/03/31 00:21:00;;;;;;;5.07;4.60;;;3.60;88.70;;;;;;5022621;28;20514;-61
2022/03/31 00:23:26;;;;;;;5.77;4.70;;;3.80;87.80;;;;;;5008210;28;20200;-59
2022/03/31 00:25:52;;;;;;;7.47;5.03;;;3.60;87.30;;;;;;5026311;28;20294;-60
2022/03/31 00:28:17;;;;;;;5.50;4.60;;;3.70;88.00;;;;;;5019181;28;20230;-60
2022/03/31 00:30:43;;;;;;;6.37;4.90;;;3.60;87.30;;;;;;5010154;28;20176;-61
2022/03/31 00:33:09;;;;;;;7.17;4.27;;;3.50;87.40;;;;;;5009982;28;20661;-61
2022/03/31 00:35:34;;;;;;;8.47;4.63;;;3.30;88.50;;;;;;5020469;28;20180;-60
2022/03/31 00:38:00;;;;;;;7.83;4.53;;;3.50;88.60;;;;;;5010939;28;20786;-61
2022/03/31 00:40:27;;;;;;;4.60;4.20;;;3.60;87.00;;;;;;5014716;28;20180;-61
2022/03/31 00:42:54;;;;;;;6.27;4.60;;;3.40;87.80;;;;;;5014130;28;20187;-60
2022/03/31 00:45:27;;;;;;;7.43;5.23;;;3.20;88.10;;;;;;5019212;28;20748;-60
2022/03/31 00:47:55;;;;;;;7.67;4.43;;;3.50;87.90;;;;;;4999117;28;20242;-61
2022/03/31 00:50:22;;;;;;;7.50;5.03;;;3.30;87.80;;;;;;5014833;28;20185;-61
2022/03/31 00:52:48;;;;;;;5.73;4.57;;;3.10;88.90;;;;;;5002820;28;20588;-59
2022/03/31 00:55:16;;;;;;;6.10;4.40;;;3.10;88.60;;;;;;5016870;28;20179;-61
2022/03/31 00:57:45;;;;;;;4.30;3.87;;;3.20;88.20;;;;;;5012107;28;20689;-62
2022/03/31 01:00:14;;;;;;;7.47;4.50;;;3.10;87.90;;;;;;5023061;28;20254;-61
2022/03/31 01:02:43;;;;;;;5.13;3.97;;;3.20;87.40;;;;;;5013899;28;20204;-60
2022/03/31 01:05:10;;;;;;;6.40;4.00;;;3.20;87.50;;;;;;5025738;28;20231;-59
2022/03/31 01:07:37;;;;;;;4.93;4.33;;;2.80;87.60;;;;;;5015329;28;20215;-66
2022/03/31 01:10:04;;;;;;;6.57;4.50;;;2.70;88.30;;;;;;5016205;28;20188;-58
2022/03/31 01:12:30;;;;;;;7.00;4.90;;;2.70;88.40;;;;;;5012678;28;20280;-85
2022/03/31 01:15:18;;;;;;;7.80;5.17;;;2.80;88.90;;;;;;5015429;28;20654;-58
2022/03/31 01:17:48;;;;;;;4.10;3.70;;;2.70;88.20;;;;;;5014615;28;20565;-57
2022/03/31 01:20:20;;;;;;;6.77;4.50;;;2.70;88.60;;;;;;5017614;28;20196;-58
2022/03/31 01:22:45;;;;;;;9.17;4.13;;;2.70;89.10;;;;;;5012853;28;20242;-58
2022/03/31 01:25:11;;;;;;;6.47;4.53;;;2.60;89.10;;;;;;5016965;28;20318;-58
2022/03/31 01:27:40;;;;;;;5.80;4.17;;;2.90;88.00;;;;;;5012704;28;20285;-58
2022/03/31 01:30:07;;;;;;;5.03;3.97;;;2.70;88.10;;;;;;5015516;28;20234;-59
2022/03/31 01:32:33;;;;;;;5.93;4.37;;;2.60;88.70;;;;;;5012574;28;20568;-59
2022/03/31 01:34:58;;;;;;;7.70;4.10;;;2.70;89.00;;;;;;5006114;28;20181;-58
2022/03/31 01:37:24;;;;;;;9.27;4.40;;;2.80;88.00;;;;;;5018730;28;20247;-58
2022/03/31 01:39:49;;;;;;;6.17;4.20;;;3.00;88.00;;;;;;5018617;28;20302;-58
2022/03/31 01:42:15;;;;;;;5.07;4.27;;;2.90;87.60;;;;;;5016941;28;20216;-59
2022/03/31 01:44:40;;;;;;;5.47;4.13;;;2.70;88.10;;;;;;5017321;28;20658;-59
2022/03/31 01:47:07;;;;;;;5.40;4.70;;;2.60;88.40;;;;;;5020542;28;20208;-59
2022/03/31 01:49:34;;;;;;;7.30;4.43;;;2.70;87.80;;;;;;5020526;28;20225;-59
2022/03/31 01:52:00;;;;;;;5.43;3.93;;;2.90;87.50;;;;;;5020173;28;20627;-59
2022/03/31 01:54:25;;;;;;;4.03;3.70;;;2.80;87.20;;;;;;5019184;28;20186;-59
2022/03/31 01:56:51;;;;;;;5.23;3.97;;;2.60;88.20;;;;;;5017894;28;20605;-59
2022/03/31 01:59:16;;;;;;;3.87;3.47;;;2.40;88.40;;;;;;5023516;28;20704;-59
2022/03/31 02:01:42;;;;;;;6.00;3.90;;;2.30;89.00;;;;;;5017763;28;20193;-59
2022/03/31 02:04:07;;;;;;;7.43;3.90;;;2.50;88.50;;;;;;5015526;28;20211;-58
2022/03/31 02:06:33;;;;;;;7.30;4.50;;;2.30;88.90;;;;;;5020124;28;20697;-58
2022/03/31 02:08:58;;;;;;;7.33;4.63;;;2.20;89.90;;;;;;5006396;28;20254;-58
2022/03/31 02:11:24;;;;;;;6.47;3.83;;;2.50;89.10;;;;;;5015169;28;20306;-59
2022/03/31 02:13:49;;;;;;;8.30;4.23;;;2.40;88.90;;;;;;5008934;28;20203;-59
2022/03/31 02:16:15;;;;;;;5.70;4.10;;;2.10;89.70;;;;;;5016119;28;20246;-58
2022/03/31 02:18:41;;;;;;;5.40;3.70;;;2.00;89.80;;;;;;5006212;28;20181;-58
2022/03/31 02:21:06;;;;;;;7.37;3.87;;;2.00;90.00;;;;;;5013009;28;20204;-58
2022/03/31 02:23:32;;;;;;;4.33;3.57;;;2.20;89.80;;;;;;5006212;28;20190;-57
2022/03/31 02:25:57;;;;;;;6.43;3.37;;;2.00;89.10;;;;;;5005722;28;20610;-57
2022/03/31 02:28:22;;;;;;;6.63;4.23;;;2.00;89.50;;;;;;5010109;28;20263;-57
2022/03/31 02:30:48;;;;;;;4.27;3.97;;;1.90;89.90;;;;;;5016614;28;20202;-57
2022/03/31 02:33:14;;;;;;;4.13;3.67;;;1.90;90.00;;;;;;5023619;28;20540;-57
2022/03/31 02:35:39;;;;;;;7.37;4.17;;;1.80;90.10;;;;;;5013828;28;20230;-57
2022/03/31 02:38:05;;;;;;;5.23;3.20;;;1.70;90.20;;;;;;5004418;28;20198;-57
2022/03/31 02:40:30;;;;;;;5.70;4.23;;;1.90;90.40;;;;;;5014670;28;20221;-57
2022/03/31 02:42:56;;;;;;;9.17;3.93;;;1.80;90.00;;;;;;5005879;28;20199;-57
2022/03/31 02:45:21;;;;;;;4.60;3.23;;;1.70;90.20;;;;;;5006490;28;20235;-58
2022/03/31 02:47:47;;;;;;;5.00;3.63;;;1.70;90.30;;;;;;5006581;28;20302;-58
2022/03/31 02:50:17;;;;;;;4.87;3.73;;;1.70;90.40;;;;;;5024679;28;20191;-59
2022/03/31 02:55:28;;;;;;;4.13;3.60;;;1.60;90.30;;;;;;5015380;28;20202;-60
2022/03/31 02:57:55;;;;;;;5.43;3.57;;;1.60;90.50;;;;;;5017171;28;20203;-59
2022/03/31 03:00:21;;;;;;;4.70;3.53;;;1.60;90.70;;;;;;5022645;28;20695;-59
2022/03/31 03:02:47;;;;;;;3.60;3.30;;;1.70;90.60;;;;;;5013841;28;20579;-59
2022/03/31 03:05:12;;;;;;;4.77;3.90;;;2.00;90.00;;;;;;5017924;28;20235;-59
2022/03/31 03:07:38;;;;;;;4.53;3.13;;;2.10;89.30;;;;;;5003638;28;20213;-59
2022/03/31 03:10:04;;;;;;;4.97;3.33;;;2.00;90.10;;;;;;5006402;28;20651;-59
2022/03/31 03:12:31;;;;;;;7.50;3.70;;;1.80;90.10;;;;;;5012731;28;20207;-59
2022/03/31 03:14:56;;;;;;;7.13;4.03;;;1.70;90.30;;;;;;5011767;28;20199;-59
2022/03/31 03:17:22;;;;;;;8.13;3.53;;;1.90;89.90;;;;;;5014688;28;20211;-59
2022/03/31 03:19:47;;;;;;;7.20;4.63;;;2.10;89.20;;;;;;5005559;28;20192;-59
2022/03/31 03:22:13;;;;;;;7.93;4.03;;;1.90;89.10;;;;;;5004210;28;20231;-58
2022/03/31 03:24:38;;;;;;;7.63;4.07;;;1.70;89.40;;;;;;5020173;28;20192;-58
2022/03/31 03:27:04;;;;;;;5.50;3.50;;;1.90;89.30;;;;;;5015659;28;20234;-57
2022/03/31 03:29:29;;;;;;;6.73;3.70;;;1.70;89.20;;;;;;5017454;28;20683;-57
2022/03/31 03:31:55;;;;;;;6.60;3.87;;;1.50;90.10;;;;;;5017674;28;20207;-63
2022/03/31 03:34:20;;;;;;;5.83;4.20;;;1.60;89.30;;;;;;5010004;28;20188;-57
2022/03/31 03:36:46;;;;;;;5.63;3.57;;;1.20;90.20;;;;;;5011522;28;20194;-58
2022/03/31 03:39:11;;;;;;;7.27;4.03;;;1.20;90.30;;;;;;5017190;28;20264;-58
2022/03/31 03:41:38;;;;;;;7.87;4.10;;;1.30;90.80;;;;;;5016121;28;20311;-58
2022/03/31 03:44:04;;;;;;;5.40;3.93;;;1.60;90.10;;;;;;5009805;28;20205;-58
2022/03/31 03:46:30;;;;;;;4.80;3.70;;;1.40;89.90;;;;;;5015286;28;20437;-58
2022/03/31 03:48:55;;;;;;;5.67;3.80;;;1.30;89.80;;;;;;5012463;28;20191;-58
2022/03/31 03:51:23;;;;;;;5.00;3.53;;;1.50;89.40;;;;;;5008108;28;20223;-58
2022/03/31 03:53:48;;;;;;;8.23;3.63;;;1.20;89.90;;;;;;5013578;28;20199;-58
2022/03/31 03:56:16;;;;;;;4.33;3.30;;;1.20;90.00;;;;;;5006515;28;20188;-61
2022/03/31 03:58:42;;;;;;;4.47;3.47;;;1.20;90.20;;;;;;5011049;28;20217;-59
2022/03/31 04:01:08;;;;;;;7.93;3.33;;;1.30;90.10;;;;;;5016090;28;20298;-57
2022/03/31 04:03:34;;;;;;;8.40;3.33;;;1.50;89.40;;;;;;5009479;28;20205;-57
2022/03/31 04:06:00;;;;;;;8.00;3.73;;;1.50;89.20;;;;;;5009443;28;20199;-58
2022/03/31 04:08:25;;;;;;;7.03;4.37;;;1.10;89.80;;;;;;5016624;28;20218;-58
2022/03/31 04:10:51;;;;;;;7.07;3.37;;;0.90;90.20;;;;;;5017807;28;20212;-57
2022/03/31 04:13:16;;;;;;;9.07;3.57;;;0.70;90.50;;;;;;5008864;28;20195;-58
2022/03/31 04:15:42;;;;;;;5.03;3.13;;;0.70;90.60;;;;;;5011931;28;20415;-59
2022/03/31 04:18:08;;;;;;;5.80;3.27;;;0.80;90.80;;;;;;5007250;28;20291;-58
2022/03/31 04:20:34;;;;;;;5.57;4.03;;;0.90;90.60;;;;;;5016472;28;20195;-58
2022/03/31 04:22:59;;;;;;;4.30;2.90;;;0.80;90.30;;;;;;5010231;28;20207;-59
2022/03/31 04:25:25;;;;;;;5.80;3.87;;;1.10;89.90;;;;;;5013738;28;20207;-59
2022/03/31 04:27:50;;;;;;;4.80;3.00;;;1.10;89.80;;;;;;5006389;28;20235;-59
2022/03/31 04:30:20;;;;;;;9.10;2.73;;;1.20;89.60;;;;;;5012108;28;20559;-59
2022/03/31 04:32:46;;;;;;;4.07;3.17;;;1.30;89.00;;;;;;5014338;28;20213;-58
2022/03/31 04:35:12;;;;;;;5.67;3.50;;;1.10;89.50;;;;;;5015401;28;20194;-58
2022/03/31 04:37:37;;;;;;;7.93;2.73;;;0.90;89.60;;;;;;5019977;28;20788;-58
2022/03/31 04:40:05;;;;;;;4.23;3.23;;;0.90;90.20;;;;;;5015071;28;20300;-59
2022/03/31 04:42:30;;;;;;;4.53;3.23;;;1.00;90.00;;;;;;5023990;28;20233;-59
2022/03/31 04:44:56;;;;;;;3.67;3.00;;;0.70;90.30;;;;;;5015422;28;20709;-58
2022/03/31 04:47:22;;;;;;;3.43;3.03;;;0.60;90.50;;;;;;5011989;28;20215;-58
2022/03/31 04:49:48;;;;;;;7.23;3.43;;;0.50;90.60;;;;;;5023549;28;20188;-58
2022/03/31 04:52:13;;;;;;;4.07;3.10;;;0.50;90.80;;;;;;5016734;28;20746;-58
2022/03/31 04:54:43;;;;;;;7.20;3.67;;;0.60;90.80;;;;;;5018501;28;20263;-58
2022/03/31 04:57:10;;;;;;;3.43;2.80;;;0.70;90.80;;;;;;5020446;28;20229;-59
2022/03/31 04:59:36;;;;;;;2.67;2.47;;;0.60;90.80;;;;;;5022600;28;20218;-59
2022/03/31 05:02:01;;;;;;;4.10;3.20;;;0.80;90.20;;;;;;5020902;28;20666;-59
2022/03/31 05:04:28;;;;;;;3.60;2.83;;;0.90;90.60;;;;;;5020402;28;20187;-59
2022/03/31 05:06:54;;;;;;;6.23;3.10;;;0.90;90.20;;;;;;5019419;28;20576;-59
2022/03/31 05:09:21;;;;;;;5.33;3.93;;;0.90;90.60;;;;;;5018104;28;20279;-59
2022/03/31 05:11:46;;;;;;;4.60;3.63;;;0.80;90.20;;;;;;5016323;28;20192;-59
2022/03/31 05:14:12;;;;;;;3.93;2.90;;;0.60;90.40;;;;;;5024275;28;20195;-58
2022/03/31 05:16:38;;;;;;;4.17;2.60;;;0.50;90.70;;;;;;5013613;28;20195;-59
2022/03/31 05:19:03;;;;;;;3.50;2.83;;;0.40;91.10;;;;;;5024901;28;20206;-59
2022/03/31 05:21:29;;;;;;;3.30;2.40;;;0.40;91.20;;;;;;5007864;28;20248;-59
2022/03/31 05:23:54;;;;;;;6.80;3.97;;;0.40;91.20;;;;;;5010774;28;20210;-59
2022/03/31 05:26:20;;;;;;;4.37;2.60;;;0.70;90.80;;;;;;5014707;28;20222;-59
2022/03/31 05:28:45;;;;;;;3.17;2.67;;;0.70;90.90;;;;;;5013655;28;20285;-59
2022/03/31 05:31:11;;;;;;;3.57;2.50;;;0.70;91.10;;;;;;5010393;28;20197;-59
2022/03/31 05:33:36;;;;;;;3.00;2.80;;;0.60;90.90;;;;;;5014973;28;20659;-59
2022/03/31 05:36:02;;;;;;;7.13;2.63;;;0.40;91.10;;;;;;5015080;28;20203;-59
2022/03/31 05:38:28;;;;;;;3.77;2.50;;;0.50;91.00;;;;;;5010321;28;20256;-59
2022/03/31 05:40:54;;;;;;;2.97;2.37;;;0.60;90.70;;;;;;5015993;28;20196;-59
2022/03/31 05:43:21;;;;;;;7.33;3.87;;;0.60;90.80;;;;;;5004927;28;20665;-58
2022/03/31 05:45:47;;;;;;;4.13;2.63;;;0.50;90.90;;;;;;5017633;28;20202;-58
2022/03/31 05:48:12;;;;;;;4.63;3.17;;;0.60;91.10;;;;;;5020609;28;20219;-58
2022/03/31 05:50:38;;;;;;;8.73;3.00;;;0.80;90.50;;;;;;5009126;28;20237;-58
2022/03/31 05:53:03;;;;;;;4.73;2.60;;;0.80;90.60;;;;;;5005001;28;20203;-58
2022/03/31 05:55:29;;;;;;;3.93;3.47;;;0.70;90.80;;;;;;5007934;28;20223;-58
2022/03/31 05:57:55;;;;;;;4.13;2.60;;;0.60;90.80;;;;;;5023672;28;20232;-57
2022/03/31 06:00:21;;;;;;;4.77;2.83;;;0.80;90.70;;;;;;5019330;28;20236;-57
2022/03/31 06:02:47;;;;;;;4.57;2.73;;;0.80;90.80;;;;;;5004629;28;20722;-57
2022/03/31 06:05:13;;;;;;;8.33;4.03;;;1.10;90.20;;;;;;5006716;28;20287;-58
2022/03/31 06:07:39;;;;;;;5.93;3.23;;;1.00;90.10;;;;;;5004783;28;20301;-58
2022/03/31 06:10:07;;;;;;;3.77;3.10;;;0.90;90.60;;;;;;5010878;28;20290;-58
2022/03/31 06:12:32;;;;;;;3.27;2.67;;;0.80;90.90;;;;;;5005371;28;20203;-58
2022/03/31 06:14:58;;;;;;;6.10;3.40;;;0.60;91.10;;;;;;5014893;28;20186;-58
2022/03/31 06:17:24;;;;;;;4.20;2.97;;;0.60;91.00;;;;;;5012618;28;20209;-58
2022/03/31 06:19:49;;;;;;;6.37;2.87;;;0.70;91.00;;;;;;5009284;28;20286;-58
2022/03/31 06:22:15;;;;;;;4.07;3.00;;;0.80;90.60;;;;;;5012353;28;20207;-58
2022/03/31 06:24:40;;;;;;;4.30;3.20;;;0.60;90.90;;;;;;5010115;28;20718;-58
2022/03/31 06:27:08;;;;;;;3.27;2.97;;;0.50;91.20;;;;;;5012160;28;20235;-58
2022/03/31 06:29:34;;;;;;;3.20;2.83;;;0.50;91.30;;;;;;5006168;28;20255;-57
2022/03/31 06:32:01;;;;;;;8.20;3.37;;;0.50;91.20;;;;;;5013092;28;20191;-57
2022/03/31 06:34:26;;;;;;;5.40;2.87;;;0.50;91.30;;;;;;5012506;28;20249;-57
2022/03/31 06:36:51;;;;;;;3.90;3.10;;;0.60;91.30;;;;;;5016117;28;20197;-57
2022/03/31 06:39:17;;;;;;;3.47;3.17;;;0.70;90.90;;;;;;5013785;28;20230;-59
2022/03/31 06:41:43;;;;;;;5.07;3.37;;;0.90;90.70;;;;;;5013691;28;20314;-59
2022/03/31 06:44:12;;;;;;;4.50;2.90;;;0.90;90.60;;;;;;5013959;28;20187;-58
2022/03/31 06:46:38;;;;;;;4.37;3.13;;;1.00;90.80;;;;;;5017576;28;20297;-58
2022/03/31 06:49:04;;;;;;;5.80;3.23;;;1.40;90.10;;;;;;5010203;28;20289;-60
2022/03/31 06:51:29;;;;;;;3.97;2.93;;;1.30;89.90;;;;;;5014653;28;20186;-61
2022/03/31 06:53:59;;;;;;;3.13;2.73;;;1.20;89.80;;;;;;5013279;28;20224;-60
2022/03/31 06:56:27;;;;;;;6.00;3.80;;;1.00;90.20;;;;;;5013800;28;20191;-60
2022/03/31 06:58:53;;;;;;;3.63;3.30;;;1.20;90.20;;;;;;5016667;28;21007;-62
2022/03/31 07:01:19;;;;;;;7.73;3.47;;;1.20;90.00;;;;;;5020645;28;20207;-62
2022/03/31 07:03:45;;;;;;;9.80;3.40;;;1.20;89.80;;;;;;5006200;28;20659;-62
2022/03/31 07:06:10;;;;;;;6.07;3.00;;;1.40;90.10;;;;;;5017309;28;20209;-61
2022/03/31 07:08:36;;;;;;;5.00;3.13;;;1.70;90.10;;;;;;5009226;28;20706;-61
2022/03/31 07:11:03;;;;;;;6.37;3.67;;;1.80;89.00;;;;;;5011698;28;20799;-61
2022/03/31 07:13:29;;;;;;;4.50;3.03;;;2.10;88.00;;;;;;5008555;28;20210;-61
2022/03/31 07:15:54;;;;;;;4.43;3.03;;;1.90;87.90;;;;;;5014848;28;20219;-61
2022/03/31 07:18:20;;;;;;;7.23;3.63;;;1.90;88.00;;;;;;5004077;28;20231;-63
2022/03/31 07:20:45;;;;;;;5.03;3.57;;;1.90;88.00;;;;;;4987216;28;20222;-63
2022/03/31 07:23:12;;;;;;;3.30;3.00;;;1.80;87.00;;;;;;5007511;28;20222;-64
2022/03/31 07:25:37;;;;;;;8.27;3.30;;;1.90;87.90;;;;;;5005603;28;20220;-64
2022/03/31 07:28:04;;;;;;;5.53;3.53;;;2.00;88.00;;;;;;5007940;28;20286;-64
2022/03/31 07:30:29;;;;;;;5.13;3.67;;;2.10;87.30;;;;;;5006364;28;20196;-62
2022/03/31 07:32:58;;;;;;;3.50;3.23;;;2.00;86.70;;;;;;5022310;28;20202;-63
2022/03/31 07:35:25;;;;;;;4.30;3.23;;;1.80;87.70;;;;;;5011325;28;20262;-62
2022/03/31 07:37:53;;;;;;;6.27;3.67;;;1.90;88.00;;;;;;5016494;28;20750;-62
2022/03/31 07:40:20;;;;;;;5.00;3.87;;;2.10;87.80;;;;;;5017840;28;20230;-63
2022/03/31 07:42:45;;;;;;;3.57;3.23;;;2.20;86.70;;;;;;5015466;28;20223;-63
2022/03/31 07:45:11;;;;;;;6.40;3.40;;;2.10;86.20;;;;;;5011583;28;20662;-63
2022/03/31 07:47:41;;;;;;;5.97;4.37;;;2.30;86.20;;;;;;5017736;28;20214;-63
2022/03/31 07:50:09;;;;;;;5.47;3.60;;;2.30;86.40;;;;;;5027142;28;20674;-65
2022/03/31 07:52:38;;;;;;;5.10;3.57;;;2.20;86.30;;;;;;5016210;28;20221;-66
2022/03/31 07:55:06;;;;;;;8.53;3.53;;;2.20;86.30;;;;;;5021647;28;20824;-64
2022/03/31 07:57:31;;;;;;;5.90;3.77;;;2.30;86.10;;;;;;5018866;28;20336;-64
2022/03/31 07:59:57;;;;;;;6.83;3.67;;;2.50;85.40;;;;;;5015820;28;20183;-63
2022/03/31 08:02:25;;;;;;;3.23;2.93;;;2.70;85.40;;;;;;5019920;28;20716;-65
2022/03/31 08:04:51;;;;;;;4.53;3.70;;;3.00;84.60;;;;;;5011824;28;20196;-65
2022/03/31 08:07:17;;;;;;;3.70;3.40;;;3.20;83.60;;;;;;5011839;28;20204;-63
2022/03/31 08:09:42;;;;;;;4.73;3.67;;;3.00;83.80;;;;;;5016162;28;20191;-66
2022/03/31 08:12:08;;;;;;;4.70;3.63;;;3.10;83.60;;;;;;5017987;28;20196;-64
2022/03/31 08:14:33;;;;;;;6.83;3.30;;;2.90;83.20;;;;;;5018625;28;20175;-64
2022/03/31 08:16:59;;;;;;;6.70;4.07;;;2.80;83.40;;;;;;5018007;28;20231;-64
2022/03/31 08:19:25;;;;;;;6.67;4.43;;;2.70;83.50;;;;;;5021267;28;20642;-63
2022/03/31 08:21:50;;;;;;;7.57;3.93;;;3.00;84.00;;;;;;5021713;28;20716;-65
2022/03/31 08:24:16;;;;;;;4.77;3.23;;;3.20;82.90;;;;;;5019633;28;20192;-63
2022/03/31 08:26:43;;;;;;;5.60;3.67;;;3.40;83.30;;;;;;5021069;28;20239;-65
2022/03/31 08:29:10;;;;;;;4.43;3.50;;;3.50;81.90;;;;;;5014605;28;20195;-63
2022/03/31 08:31:36;;;;;;;3.20;2.90;;;3.70;82.60;;;;;;5008171;28;20192;-62
2022/03/31 08:34:03;;;;;;;5.83;3.87;;;4.00;82.00;;;;;;5015172;28;20208;-63
2022/03/31 08:36:29;;;;;;;3.43;3.13;;;4.00;81.10;;;;;;5007760;28;20195;-63
2022/03/31 08:38:55;;;;;;;4.43;4.03;;;3.90;81.00;;;;;;5015842;28;20195;-65
2022/03/31 08:41:24;;;;;;;5.53;3.67;;;3.50;81.30;;;;;;5020470;28;20310;-64
2022/03/31 08:43:50;;;;;;;4.00;3.57;;;4.00;81.60;;;;;;5018846;28;20200;-63
2022/03/31 08:46:16;;;;;;;7.73;3.97;;;4.10;80.90;;;;;;5015025;28;20196;-62
2022/03/31 08:48:42;;;;;;;7.27;3.67;;;3.80;79.90;;;;;;5013372;28;20713;-64
2022/03/31 08:51:08;;;;;;;3.90;3.47;;;4.20;81.30;;;;;;5010153;28;20203;-62
2022/03/31 08:53:33;;;;;;;4.17;3.10;;;4.50;79.40;;;;;;5015566;28;20273;-63
2022/03/31 08:55:59;;;;;;;4.33;3.77;;;4.80;79.00;;;;;;5017276;28;20214;-63
2022/03/31 08:58:25;;;;;;;8.93;3.70;;;4.80;78.30;;;;;;5009888;28;20253;-64
2022/03/31 09:00:51;;;;;;;6.60;3.60;;;5.10;78.00;;;;;;5011716;28;20230;-64
2022/03/31 09:03:17;;;;;;;4.00;3.50;;;5.20;77.30;;;;;;5009141;28;20274;-64
2022/03/31 09:05:45;;;;;;;4.30;3.63;;;5.20;77.00;;;;;;5018939;28;20206;-64
2022/03/31 09:08:13;;;;;;;7.27;4.47;;;5.40;76.30;;;;;;5015218;28;20230;-64
2022/03/31 09:10:47;;;;;;;5.53;3.37;;;5.30;76.90;;;;;;5013928;28;20192;-65
2022/03/31 09:13:25;;;;;;;7.27;3.87;;;5.30;76.70;;;;;;5008279;28;20202;-64
2022/03/31 09:16:04;;;;;;;8.27;3.80;;;5.20;75.80;;;;;;5019873;28;20195;-64
2022/03/31 09:18:31;;;;;;;7.23;3.93;;;5.30;75.60;;;;;;5009573;28;20673;-64
2022/03/31 09:20:58;;;;;;;4.80;4.23;;;4.90;75.90;;;;;;5012134;28;20195;-64
2022/03/31 09:23:26;;;;;;;5.63;3.40;;;5.10;76.60;;;;;;5010175;28;20571;-64
2022/03/31 09:25:52;;;;;;;4.33;3.53;;;5.50;76.20;;;;;;5015482;28;20211;-63
2022/03/31 09:28:22;;;;;;;7.03;4.07;;;5.70;75.60;;;;;;5005073;28;20307;-64
2022/03/31 09:30:54;;;;;;;5.73;4.00;;;5.60;74.70;;;;;;5026480;28;20642;-66
2022/03/31 09:33:27;;;;;;;7.90;4.30;;;5.60;75.00;;;;;;5005507;28;20206;-65
2022/03/31 09:35:58;;;;;;;5.23;3.73;;;5.70;75.20;;;;;;5020924;28;20191;-64
2022/03/31 09:38:23;;;;;;;6.77;4.03;;;5.90;74.30;;;;;;5019131;28;20207;-63
2022/03/31 09:40:49;;;;;;;5.33;3.67;;;6.00;74.40;;;;;;5015338;28;20563;-63
2022/03/31 09:43:14;;;;;;;5.07;4.10;;;6.00;74.50;;;;;;5009521;28;20207;-63
2022/03/31 09:45:41;;;;;;;8.47;4.33;;;6.00;73.90;;;;;;5014279;28;20227;-67
2022/03/31 09:48:20;;;;;;;8.47;4.73;;;6.20;73.70;;;;;;5005290;28;20358;-63
2022/03/31 09:50:47;;;;;;;7.90;4.20;;;5.60;74.90;;;;;;5021950;28;20552;-63
2022/03/31 09:53:13;;;;;;;5.43;4.60;;;5.70;74.60;;;;;;5004406;28;20192;-60
2022/03/31 09:55:41;;;;;;;8.07;4.73;;;5.70;75.20;;;;;;5009952;28;20192;-62
2022/03/31 09:58:08;;;;;;;7.53;3.90;;;6.00;76.00;;;;;;5021030;28;20303;-61
2022/03/31 10:00:33;;;;;;;9.50;4.50;;;6.30;73.60;;;;;;5020858;28;20195;-63
2022/03/31 10:03:00;;;;;;;6.27;4.73;;;6.50;73.90;;;;;;5010626;28;20204;-64
2022/03/31 10:05:27;;;;;;;7.97;4.57;;;6.10;73.50;;;;;;5015877;28;20195;-63
2022/03/31 10:07:54;;;;;;;5.50;4.57;;;6.40;74.40;;;;;;5022790;28;20214;-61
2022/03/31 10:10:20;;;;;;;8.13;4.43;;;6.60;74.00;;;;;;5014792;28;20198;-63
2022/03/31 10:13:03;;;;;;;9.17;5.10;;;6.10;74.00;;;;;;5008589;28;20200;-61
2022/03/31 10:15:35;;;;;;;9.80;4.97;;;6.30;74.10;;;;;;5018443;28;20655;-64
2022/03/31 10:18:01;;;;;;;6.07;4.33;;;6.30;73.70;;;;;;5014341;28;20251;-64
2022/03/31 10:20:26;;;;;;;6.80;4.57;;;6.60;74.10;;;;;;5018451;28;20196;-63
2022/03/31 10:25:42;;;;;;;6.80;4.33;;;6.60;72.60;;;;;;5021410;28;20268;-61
2022/03/31 10:28:20;;;;;;;5.77;3.73;;;6.50;72.70;;;;;;5006516;28;20236;-61
2022/03/31 10:30:57;;;;;;;14.43;4.60;;;6.40;72.90;;;;;;5013855;28;20278;-60
2022/03/31 10:33:44;;;;;;;7.50;4.53;;;6.90;73.60;;;;;;5006173;28;20945;-61
2022/03/31 10:36:15;;;;;;;8.83;3.97;;;7.10;72.30;;;;;;5016870;28;20909;-79
2022/03/31 10:38:55;;;;;;;5.77;3.73;;;7.50;72.50;;;;;;4993921;28;20306;-81
2022/03/31 10:41:29;;;;;;;6.27;4.67;;;7.80;71.20;;;;;;5015226;28;20195;-67
2022/03/31 10:43:58;;;;;;;11.00;4.37;;;7.70;70.70;;;;;;5004208;28;20208;-67
2022/03/31 10:46:25;;;;;;;8.17;4.00;;;8.20;71.50;;;;;;5020315;28;20690;-67
2022/03/31 10:48:52;;;;;;;5.73;4.53;;;8.30;70.10;;;;;;5013660;28;20694;-69
2022/03/31 10:51:18;;;;;;;5.80;4.10;;;7.40;69.20;;;;;;5006502;28;20192;-67
2022/03/31 10:53:48;;;;;;;7.23;4.87;;;7.40;71.90;;;;;;5006121;28;20201;-68
2022/03/31 10:56:20;;;;;;;5.43;4.93;;;8.00;70.50;;;;;;5005525;28;20201;-67
2022/03/31 10:58:46;;;;;;;6.87;4.13;;;8.70;69.90;;;;;;5009564;28;20227;-65
2022/03/31 11:01:12;;;;;;;6.37;4.50;;;8.70;68.40;;;;;;5012767;28;20206;-67
2022/03/31 11:03:40;;;;;;;8.40;4.47;;;8.80;67.30;;;;;;5011382;28;20741;-66
2022/03/31 11:06:08;;;;;;;4.80;4.07;;;8.60;68.90;;;;;;5016083;28;20194;-69
2022/03/31 11:08:46;;;;;;;5.17;4.03;;;9.30;68.60;;;;;;5013003;28;20224;-68
2022/03/31 11:11:23;;;;;;;5.50;4.83;;;9.80;66.40;;;;;;5023848;28;20193;-68
2022/03/31 11:13:51;;;;;;;5.33;4.43;;;9.80;64.60;;;;;;5009956;28;20723;-67
2022/03/31 11:16:18;;;;;;;9.83;5.00;;;9.30;66.40;;;;;;5020469;28;20195;-68
2022/03/31 11:18:55;;;;;;;6.50;4.67;;;8.40;65.60;;;;;;5021428;28;20574;-68
2022/03/31 11:21:22;;;;;;;6.80;4.33;;;8.90;66.40;;;;;;5018137;28;20607;-68
2022/03/31 11:23:49;;;;;;;7.00;4.00;;;8.80;65.90;;;;;;5009823;28;20216;-68
2022/03/31 11:26:40;;;;;;;6.40;3.57;;;9.10;67.90;;;;;;5024787;28;20217;-68
2022/03/31 11:29:13;;;;;;;10.60;4.63;;;10.00;62.20;;;;;;5017490;28;20762;-67
2022/03/31 11:31:50;;;;;;;4.80;3.80;;;9.80;64.10;;;;;;5028021;28;20192;-68
2022/03/31 11:34:23;;;;;;;6.10;4.20;;;10.30;61.10;;;;;;5017086;28;20196;-67
2022/03/31 11:36:51;;;;;;;5.57;4.33;;;10.50;59.20;;;;;;5019502;28;20317;-67
2022/03/31 11:39:19;;;;;;;5.40;4.13;;;9.30;61.40;;;;;;5018813;28;20285;-72
2022/03/31 11:41:45;;;;;;;5.10;4.60;;;10.10;63.60;;;;;;5014716;28;20199;-68
2022/03/31 11:44:11;;;;;;;5.00;4.00;;;10.40;60.10;;;;;;5028373;28;20193;-68
2022/03/31 11:46:40;;;;;;;6.80;4.10;;;9.80;60.70;;;;;;5025608;28;20285;-68
2022/03/31 11:49:16;;;;;;;6.03;3.77;;;10.10;60.90;;;;;;5017869;28;20215;-68
2022/03/31 11:51:48;;;;;;;5.23;4.33;;;10.70;59.30;;;;;;5018767;28;20208;-68
2022/03/31 11:54:14;;;;;;;6.93;4.93;;;11.00;59.10;;;;;;5008591;28;20651;-70
2022/03/31 11:56:39;;;;;;;5.40;4.33;;;11.20;59.20;;;;;;5012799;28;20193;-70
2022/03/31 11:59:05;;;;;;;5.33;4.47;;;9.90;59.70;;;;;;5017197;28;20210;-67
2022/03/31 12:01:46;;;;;;;5.77;4.07;;;9.50;61.10;;;;;;5025814;28;20240;-70
2022/03/31 12:04:19;;;;;;;5.37;4.30;;;9.10;61.50;;;;;;5021297;28;20245;-68
2022/03/31 12:06:50;;;;;;;7.07;4.27;;;9.10;62.50;;;;;;5010063;28;20960;-70
2022/03/31 12:09:16;;;;;;;8.73;4.33;;;9.20;61.50;;;;;;5014961;28;20223;-70
2022/03/31 12:11:42;;;;;;;7.57;4.30;;;9.10;62.80;;;;;;5019364;28;20227;-69
2022/03/31 12:14:10;;;;;;;6.53;5.13;;;9.00;61.60;;;;;;5022003;28;20540;-69
2022/03/31 12:16:49;;;;;;;7.50;4.80;;;8.50;63.00;;;;;;5024984;28;20283;-70
2022/03/31 12:19:15;;;;;;;5.87;4.50;;;9.30;62.20;;;;;;4997438;28;20267;-70
2022/03/31 12:21:46;;;;;;;5.60;4.27;;;9.40;62.50;;;;;;5015621;28;20204;-69
2022/03/31 12:24:12;;;;;;;4.63;4.13;;;9.90;62.40;;;;;;5017732;28;20215;-69
2022/03/31 12:26:59;;;;;;;6.60;4.53;;;9.10;61.90;;;;;;5019996;28;20680;-68
2022/03/31 12:29:31;;;;;;;8.57;4.67;;;9.40;60.70;;;;;;5023112;28;21174;-68
2022/03/31 12:32:07;;;;;;;4.70;4.10;;;8.70;61.20;;;;;;5020540;28;20199;-69
2022/03/31 12:34:38;;;;;;;8.30;4.33;;;8.50;62.60;;;;;;5008334;28;20196;-70
2022/03/31 12:37:06;;;;;;;6.63;4.67;;;8.40;63.10;;;;;;5021913;28;20278;-69
2022/03/31 12:39:40;;;;;;;8.70;4.63;;;8.00;64.10;;;;;;5017148;28;20211;-70
2022/03/31 12:42:08;;;;;;;4.83;4.00;;;7.90;64.00;;;;;;5024304;28;20198;-70
2022/03/31 12:44:39;;;;;;;7.20;4.63;;;8.20;64.60;;;;;;5022558;28;20199;-70
2022/03/31 12:47:05;;;;;;;5.87;4.17;;;8.70;64.40;;;;;;5025925;28;20638;-70
2022/03/31 12:49:35;;;;;;;6.03;5.07;;;8.60;63.40;;;;;;5022446;28;20222;-70
2022/03/31 12:52:09;;;;;;;8.30;5.73;;;8.20;63.40;;;;;;5012614;28;20646;-71
2022/03/31 12:54:40;;;;;;;6.23;4.57;;;8.20;63.70;;;;;;5017771;28;20200;-69
2022/03/31 12:57:19;;;;;;;5.37;4.47;;;8.60;63.30;;;;;;5016117;28;20196;-77
2022/03/31 12:59:59;;;;;;;9.13;4.50;;;9.10;63.00;;;;;;5009045;28;20203;-71
2022/03/31 13:02:27;;;;;;;4.73;4.27;;;9.90;61.80;;;;;;5015693;28;20179;-71
2022/03/31 13:04:53;;;;;;;7.00;4.40;;;10.10;60.00;;;;;;5010215;28;20203;-70